createdAt,value
2018-02-18T00:01:05.850Z,90.30
2018-02-18T00:03:33.347Z,90.30
2018-02-18T00:06:00.839Z,90.40
2018-02-18T00:08:29.121Z,90.10
2018-02-18T00:10:57.379Z,90.20
2018-02-18T00:13:24.867Z,90.20
2018-02-18T00:15:52.370Z,90.10
2018-02-18T00:18:19.859Z,90.10
2018-02-18T00:20:48.115Z,89.90
2018-02-18T00:23:15.611Z,89.90
2018-02-18T00:25:43.104Z,89.80
2018-02-18T00:28:10.586Z,90.00
2018-02-18T00:30:38.096Z,89.90
2018-02-18T00:33:05.578Z,90.00
2018-02-18T00:35:33.071Z,90.00
2018-02-18T00:38:00.575Z,90.00
2018-02-18T00:40:28.067Z,90.70
2018-02-18T00:42:55.567Z,90.20
2018-02-18T00:45:23.820Z,90.40
2018-02-18T00:47:51.315Z,90.30
2018-02-18T00:50:18.832Z,90.20
2018-02-18T00:52:46.311Z,90.30
2018-02-18T00:55:14.570Z,90.40
2018-02-18T00:57:42.843Z,90.60
2018-02-18T01:00:10.323Z,90.50
2018-02-18T01:02:38.586Z,90.60
2018-02-18T01:05:06.851Z,90.60
2018-02-18T01:07:34.340Z,90.60
2018-02-18T01:10:01.835Z,90.80
2018-02-18T01:12:29.326Z,90.40
2018-02-18T01:14:56.819Z,90.30
2018-02-18T01:17:24.329Z,90.50
2018-02-18T01:19:51.820Z,90.40
2018-02-18T01:22:20.075Z,90.40
2018-02-18T01:24:47.587Z,90.40
2018-02-18T01:27:15.084Z,90.40
2018-02-18T01:29:42.571Z,90.30
2018-02-18T01:32:10.839Z,90.40
2018-02-18T01:34:39.098Z,90.40
2018-02-18T01:37:06.586Z,90.40
2018-02-18T01:39:34.087Z,90.40
2018-02-18T01:42:01.577Z,90.40
2018-02-18T01:44:29.855Z,90.40
2018-02-18T01:46:58.152Z,90.70
2018-02-18T01:49:25.642Z,90.60
2018-02-18T01:51:53.147Z,90.70
2018-02-18T01:54:21.411Z,90.80
2018-02-18T01:56:48.899Z,90.70
2018-02-18T01:59:16.397Z,90.80
2018-02-18T02:01:43.902Z,91.00
2018-02-18T02:04:12.167Z,91.10
2018-02-18T02:06:39.659Z,91.10
2018-02-18T02:09:07.159Z,90.90
2018-02-18T02:11:34.644Z,90.90
2018-02-18T02:14:02.898Z,90.90
2018-02-18T02:16:30.416Z,90.90
2018-02-18T02:18:57.919Z,91.00
2018-02-18T02:21:25.403Z,91.00
2018-02-18T02:23:53.683Z,91.40
2018-02-18T02:26:21.939Z,91.00
2018-02-18T02:28:49.433Z,91.00
2018-02-18T02:31:16.944Z,91.00
2018-02-18T02:33:44.442Z,91.00
2018-02-18T02:36:11.931Z,91.00
2018-02-18T02:38:39.431Z,91.20
2018-02-18T02:41:06.919Z,91.20
2018-02-18T02:43:34.419Z,91.00
2018-02-18T02:46:01.921Z,91.20
2018-02-18T02:48:29.448Z,91.30
2018-02-18T02:50:56.938Z,91.00
2018-02-18T02:53:25.193Z,91.00
2018-02-18T02:55:52.708Z,90.90
2018-02-18T02:58:20.199Z,91.10
2018-02-18T03:00:47.696Z,91.00
2018-02-18T03:03:15.223Z,91.00
2018-02-18T03:05:42.714Z,91.00
2018-02-18T03:08:10.207Z,91.10
2018-02-18T03:10:37.711Z,91.20
2018-02-18T03:13:05.967Z,91.40
2018-02-18T03:15:33.473Z,91.40
2018-02-18T03:18:00.987Z,91.30
2018-02-18T03:20:28.488Z,91.30
2018-02-18T03:22:55.979Z,91.30
2018-02-18T03:25:23.480Z,91.30
2018-02-18T03:27:51.738Z,91.30
2018-02-18T03:30:19.249Z,91.30
2018-02-18T03:32:46.748Z,91.20
2018-02-18T03:35:14.244Z,91.10
2018-02-18T03:37:41.752Z,91.10
2018-02-18T03:40:09.240Z,91.10
2018-02-18T03:42:37.519Z,91.40
2018-02-18T03:45:05.771Z,91.30
2018-02-18T03:47:33.260Z,91.30
2018-02-18T03:50:00.759Z,91.50
2018-02-18T03:52:28.251Z,91.80
2018-02-18T03:54:56.511Z,91.70
2018-02-18T03:57:24.020Z,91.70
2018-02-18T03:59:51.528Z,91.70
2018-02-18T04:02:19.031Z,91.60
2018-02-18T04:04:46.535Z,91.80
2018-02-18T04:07:14.032Z,91.80
2018-02-18T04:09:42.283Z,91.70
2018-02-18T04:12:09.787Z,91.70
2018-02-18T04:14:37.296Z,91.70
2018-02-18T04:17:04.812Z,91.70
2018-02-18T04:19:32.334Z,92.10
2018-02-18T04:22:00.591Z,92.00
2018-02-18T04:24:28.086Z,91.90
2018-02-18T04:26:55.603Z,92.00
2018-02-18T04:29:23.096Z,92.20
2018-02-18T04:31:50.592Z,92.20
2018-02-18T04:34:18.118Z,92.40
2018-02-18T04:36:45.606Z,92.50
2018-02-18T04:39:13.107Z,92.60
2018-02-18T04:41:41.419Z,92.90
2018-02-18T04:44:08.929Z,92.90
2018-02-18T04:46:36.423Z,93.00
2018-02-18T04:49:03.927Z,93.00
2018-02-18T04:51:31.424Z,93.00
2018-02-18T04:53:59.696Z,93.20
2018-02-18T04:56:27.988Z,93.40
2018-02-18T04:58:55.501Z,93.40
2018-02-18T05:01:23.020Z,93.50
2018-02-18T05:03:50.510Z,93.50
2018-02-18T05:06:18.779Z,93.10
2018-02-18T05:08:46.289Z,93.10
2018-02-18T05:11:13.787Z,92.80
2018-02-18T05:13:41.283Z,92.60
2018-02-18T05:16:08.799Z,92.60
2018-02-18T05:18:36.286Z,92.60
2018-02-18T05:21:03.782Z,92.50
2018-02-18T05:23:31.296Z,92.40
2018-02-18T05:25:58.802Z,92.50
2018-02-18T05:28:26.290Z,92.60
2018-02-18T05:30:54.571Z,92.70
2018-02-18T05:33:22.831Z,93.10
2018-02-18T05:35:50.331Z,92.70
2018-02-18T05:38:17.854Z,92.70
2018-02-18T05:40:45.351Z,92.70
2018-02-18T05:43:12.840Z,92.60
2018-02-18T05:45:40.352Z,92.80
2018-02-18T05:48:07.842Z,92.70
2018-02-18T05:50:36.095Z,92.70
2018-02-18T05:53:03.603Z,92.60
2018-02-18T05:55:31.107Z,92.60
2018-02-18T05:57:58.595Z,92.60
2018-02-18T06:00:26.873Z,92.30
2018-02-18T06:02:54.364Z,92.30
2018-02-18T06:05:21.852Z,92.30
2018-02-18T06:07:49.363Z,92.20
2018-02-18T06:10:16.859Z,92.20
2018-02-18T06:12:44.367Z,92.20
2018-02-18T06:15:11.887Z,92.10
2018-02-18T06:17:39.371Z,92.20
2018-02-18T06:20:07.636Z,91.90
2018-02-18T06:22:35.902Z,91.90
2018-02-18T06:25:03.400Z,91.90
2018-02-18T06:27:30.905Z,92.30
2018-02-18T06:29:58.408Z,92.00
2018-02-18T06:32:25.894Z,91.90
2018-02-18T06:34:53.387Z,91.80
2018-02-18T06:37:20.884Z,91.80
2018-02-18T06:39:48.375Z,91.90
2018-02-18T06:42:15.862Z,91.90
2018-02-18T06:44:43.369Z,91.80
2018-02-18T06:47:10.867Z,91.70
2018-02-18T06:49:38.355Z,91.70
2018-02-18T06:52:06.631Z,91.90
2018-02-18T06:54:34.906Z,91.80
2018-02-18T06:57:03.210Z,91.80
2018-02-18T06:59:30.808Z,91.80
2018-02-18T07:01:58.336Z,91.80
2018-02-18T07:04:25.827Z,91.70
2018-02-18T07:06:53.464Z,91.70
2018-02-18T07:09:21.015Z,91.70
2018-02-18T07:11:48.470Z,91.70
2018-02-18T07:14:16.000Z,91.70
2018-02-18T07:16:44.296Z,91.60
2018-02-18T07:19:11.803Z,91.60
2018-02-18T07:21:39.302Z,91.60
2018-02-18T07:24:06.791Z,91.40
2018-02-18T07:26:34.282Z,91.30
2018-02-18T07:29:01.787Z,91.20
2018-02-18T07:31:29.275Z,90.90
2018-02-18T07:33:56.771Z,90.90
2018-02-18T07:36:24.291Z,91.20
2018-02-18T07:38:51.784Z,91.00
2018-02-18T07:41:19.275Z,90.70
2018-02-18T07:43:46.783Z,90.70
2018-02-18T07:46:14.277Z,90.70
2018-02-18T07:48:42.536Z,90.40
2018-02-18T07:51:10.021Z,90.40
2018-02-18T07:53:37.509Z,90.30
2018-02-18T07:56:05.007Z,90.10
2018-02-18T07:58:32.495Z,90.20
2018-02-18T08:00:59.995Z,90.30
2018-02-18T08:03:27.484Z,90.10
2018-02-18T08:05:55.859Z,90.10
2018-02-18T08:08:23.351Z,90.10
2018-02-18T08:10:50.839Z,90.00
2018-02-18T08:13:18.347Z,88.90
2018-02-18T08:15:46.619Z,88.60
2018-02-18T08:18:14.872Z,89.10
2018-02-18T08:20:42.370Z,89.10
2018-02-18T08:23:09.872Z,88.30
2018-02-18T08:25:37.373Z,88.00
2018-02-18T08:28:05.654Z,88.70
2018-02-18T08:30:33.914Z,87.90
2018-02-18T08:33:02.179Z,87.60
2018-02-18T08:35:29.671Z,87.50
2018-02-18T08:37:57.168Z,87.00
2018-02-18T08:40:24.660Z,86.60
2018-02-18T08:42:53.002Z,86.80
2018-02-18T08:45:20.560Z,86.70
2018-02-18T08:47:48.055Z,87.30
2018-02-18T08:50:16.327Z,86.30
2018-02-18T08:52:43.812Z,86.20
2018-02-18T08:55:11.303Z,86.70
2018-02-18T08:57:38.851Z,85.60
2018-02-18T09:00:06.360Z,85.70
2018-02-18T09:02:33.873Z,85.30
2018-02-18T09:05:01.385Z,84.20
2018-02-18T09:07:29.636Z,83.40
2018-02-18T09:09:57.145Z,83.40
2018-02-18T09:12:24.660Z,83.80
2018-02-18T09:14:52.142Z,82.50
2018-02-18T09:17:19.647Z,82.80
2018-02-18T09:19:47.916Z,82.30
2018-02-18T09:22:15.422Z,82.40
2018-02-18T09:24:43.765Z,82.30
2018-02-18T09:27:11.355Z,82.30
2018-02-18T09:29:39.624Z,81.60
2018-02-18T09:32:07.895Z,81.20
2018-02-18T09:34:35.399Z,81.30
2018-02-18T09:37:02.888Z,82.40
2018-02-18T09:39:30.395Z,82.70
2018-02-18T09:41:57.899Z,81.50
2018-02-18T09:44:25.397Z,81.40
2018-02-18T09:46:53.662Z,81.10
2018-02-18T09:49:21.170Z,81.00
2018-02-18T09:51:48.667Z,81.40
2018-02-18T09:54:16.187Z,80.10
2018-02-18T09:56:43.762Z,78.70
2018-02-18T09:59:11.301Z,79.20
2018-02-18T10:01:38.798Z,78.10
2018-02-18T10:04:06.352Z,77.70
2018-02-18T10:06:33.903Z,77.40
2018-02-18T10:09:01.583Z,77.70
2018-02-18T10:11:29.120Z,76.90
2018-02-18T10:13:56.678Z,75.60
2018-02-18T10:16:24.216Z,76.50
2018-02-18T10:18:51.766Z,72.00
2018-02-18T10:21:19.276Z,74.50
2018-02-18T10:23:46.789Z,74.20
2018-02-18T10:26:14.286Z,72.20
2018-02-18T10:28:41.780Z,73.30
2018-02-18T10:31:09.279Z,73.00
2018-02-18T10:33:36.776Z,72.00
2018-02-18T10:36:05.031Z,71.10
2018-02-18T10:38:32.539Z,71.00
2018-02-18T10:41:00.032Z,70.10
2018-02-18T10:43:27.515Z,70.10
2018-02-18T10:45:55.019Z,66.50
2018-02-18T10:48:22.600Z,64.20
2018-02-18T10:50:50.095Z,60.70
2018-02-18T10:53:17.571Z,59.50
2018-02-18T10:55:45.829Z,61.40
2018-02-18T10:58:13.352Z,61.40
2018-02-18T11:00:40.968Z,61.00
2018-02-18T11:03:08.460Z,63.80
2018-02-18T11:05:36.774Z,65.70
2018-02-18T11:08:04.289Z,67.10
2018-02-18T11:10:31.916Z,62.90
2018-02-18T11:13:01.029Z,66.90
2018-02-18T11:15:28.574Z,66.90
2018-02-18T11:17:56.160Z,66.20
2018-02-18T11:20:23.670Z,68.10
2018-02-18T11:22:51.943Z,64.80
2018-02-18T11:25:19.579Z,64.80
2018-02-18T11:27:47.137Z,67.20
2018-02-18T11:30:14.627Z,66.40
2018-02-18T11:32:42.912Z,64.50
2018-02-18T11:35:10.420Z,64.40
2018-02-18T11:37:37.900Z,64.10
2018-02-18T11:40:05.423Z,65.70
2018-02-18T11:42:32.936Z,63.80
2018-02-18T11:45:01.200Z,61.60
2018-02-18T11:47:28.708Z,61.50
2018-02-18T11:49:56.196Z,66.00
2018-02-18T11:52:23.706Z,66.00
2018-02-18T11:54:51.212Z,67.40
2018-02-18T11:57:18.742Z,62.20
2018-02-18T11:59:46.219Z,65.60
2018-02-18T12:02:13.700Z,65.70
2018-02-18T12:04:41.179Z,66.30
2018-02-18T12:07:09.467Z,62.60
2018-02-18T12:09:36.956Z,62.50
2018-02-18T12:12:04.435Z,60.80
2018-02-18T12:14:31.963Z,63.10
2018-02-18T12:16:59.448Z,64.60
2018-02-18T12:19:27.003Z,59.50
2018-02-18T12:21:54.511Z,60.40
2018-02-18T12:24:22.031Z,60.70
2018-02-18T12:26:50.371Z,60.00
2018-02-18T12:29:17.877Z,59.90
2018-02-18T12:31:46.163Z,60.20
2018-02-18T12:34:14.533Z,61.80
2018-02-18T12:36:42.823Z,59.00
2018-02-18T12:39:11.104Z,57.60
2018-02-18T12:41:39.359Z,59.30
2018-02-18T12:44:07.654Z,58.10
2018-02-18T12:46:35.939Z,59.20
2018-02-18T12:49:03.447Z,59.20
2018-02-18T12:51:30.950Z,60.40
2018-02-18T12:53:59.196Z,59.30
2018-02-18T12:56:26.695Z,59.40
2018-02-18T12:58:54.198Z,59.30
2018-02-18T13:01:21.698Z,57.60
2018-02-18T13:03:49.192Z,60.10
2018-02-18T13:06:16.679Z,57.70
2018-02-18T13:08:44.179Z,60.50
2018-02-18T13:11:11.683Z,61.50
2018-02-18T13:13:39.164Z,61.90
2018-02-18T13:16:06.665Z,56.80
2018-02-18T13:18:34.238Z,56.50
2018-02-18T13:21:01.752Z,57.70
2018-02-18T13:23:30.012Z,58.60
2018-02-18T13:25:57.496Z,58.50
2018-02-18T13:28:25.759Z,59.90
2018-02-18T13:30:54.003Z,57.50
2018-02-18T13:33:21.509Z,57.50
2018-02-18T13:35:48.991Z,57.40
2018-02-18T13:38:16.503Z,56.90
2018-02-18T13:40:44.751Z,58.50
2018-02-18T13:43:12.235Z,58.40
2018-02-18T13:45:40.516Z,56.60
2018-02-18T13:48:08.771Z,58.70
2018-02-18T13:50:36.305Z,58.60
2018-02-18T13:53:03.801Z,60.30
2018-02-18T13:55:31.283Z,59.20
2018-02-18T13:57:58.824Z,59.40
2018-02-18T14:00:27.062Z,62.00
2018-02-18T14:02:54.543Z,62.00
2018-02-18T14:05:22.042Z,59.90
2018-02-18T14:07:49.535Z,59.50
2018-02-18T14:10:17.018Z,63.20
2018-02-18T14:12:44.516Z,64.10
2018-02-18T14:15:11.992Z,58.50
2018-02-18T14:17:39.488Z,60.10
2018-02-18T14:20:07.002Z,59.70
2018-02-18T14:22:34.496Z,62.50
2018-02-18T14:25:02.000Z,63.10
2018-02-18T14:27:29.499Z,59.70
2018-02-18T14:29:56.984Z,64.00
2018-02-18T14:32:25.248Z,59.20
2018-02-18T14:34:52.739Z,59.20
2018-02-18T14:37:20.270Z,61.50
2018-02-18T14:39:48.547Z,61.80
2018-02-18T14:42:28.684Z,60.50
2018-02-18T14:45:08.225Z,60.50
2018-02-18T14:47:47.512Z,63.70
2018-02-18T14:50:27.843Z,61.70
2018-02-18T14:53:07.915Z,61.40
2018-02-18T14:55:47.207Z,61.40
2018-02-18T14:58:14.726Z,60.20
2018-02-18T15:00:42.219Z,59.10
2018-02-18T15:03:09.742Z,64.10
2018-02-18T15:05:37.248Z,64.50
2018-02-18T15:08:04.751Z,65.60
2018-02-18T15:10:32.309Z,63.90
2018-02-18T15:12:59.855Z,62.20
2018-02-18T15:15:27.362Z,62.70
2018-02-18T15:17:54.883Z,61.20
2018-02-18T15:20:22.376Z,62.60
2018-02-18T15:22:49.875Z,65.70
2018-02-18T15:25:18.167Z,68.40
2018-02-18T15:27:45.699Z,68.40
2018-02-18T15:30:13.963Z,62.30
2018-02-18T15:32:41.476Z,62.20
2018-02-18T15:35:08.995Z,63.10
2018-02-18T15:37:36.499Z,62.30
2018-02-18T15:40:03.991Z,62.20
2018-02-18T15:42:31.507Z,63.40
2018-02-18T15:44:59.060Z,63.00
2018-02-18T15:47:26.569Z,63.90
2018-02-18T15:49:54.089Z,62.70
2018-02-18T15:52:22.360Z,62.20
2018-02-18T15:54:49.866Z,62.30
2018-02-18T15:57:18.189Z,64.70
2018-02-18T15:59:45.723Z,64.60
2018-02-18T16:02:13.235Z,67.10
2018-02-18T16:04:40.755Z,65.70
2018-02-18T16:07:08.271Z,67.20
2018-02-18T16:09:36.552Z,68.80
2018-02-18T16:12:04.810Z,68.00
2018-02-18T16:14:32.333Z,67.90
2018-02-18T16:16:59.825Z,68.60
2018-02-18T16:19:27.323Z,66.80
2018-02-18T16:21:54.843Z,65.40
2018-02-18T16:24:22.358Z,66.30
2018-02-18T16:26:49.857Z,67.90
2018-02-18T16:29:17.361Z,67.50
2018-02-18T16:31:44.851Z,68.30
2018-02-18T16:34:12.344Z,70.10
2018-02-18T16:36:40.628Z,71.40
2018-02-18T16:39:08.884Z,73.60
2018-02-18T16:41:36.386Z,73.60
2018-02-18T16:44:03.920Z,73.20
2018-02-18T16:46:31.420Z,69.50
2018-02-18T16:48:58.928Z,71.30
2018-02-18T16:51:27.211Z,73.30
2018-02-18T16:53:55.472Z,67.50
2018-02-18T16:56:22.969Z,67.40
2018-02-18T16:58:50.480Z,68.00
2018-02-18T17:01:17.989Z,69.00
2018-02-18T17:03:45.491Z,70.00
2018-02-18T17:06:13.015Z,72.30
2018-02-18T17:08:40.504Z,72.70
2018-02-18T17:11:07.999Z,72.00
2018-02-18T17:13:36.260Z,71.70
2018-02-18T17:16:04.528Z,70.10
2018-02-18T17:18:32.024Z,70.10
2018-02-18T17:20:59.521Z,68.90
2018-02-18T17:23:27.036Z,68.80
2018-02-18T17:25:54.711Z,69.60
2018-02-18T17:28:22.623Z,68.40
2018-02-18T17:30:50.433Z,68.20
2018-02-18T17:33:17.974Z,69.80
2018-02-18T17:35:46.232Z,70.10
2018-02-18T17:38:13.736Z,70.10
2018-02-18T17:40:41.407Z,68.80
2018-02-18T17:43:08.894Z,70.50
2018-02-18T17:45:36.398Z,67.90
2018-02-18T17:48:03.903Z,67.80
2018-02-18T17:50:31.434Z,68.20
2018-02-18T17:52:58.932Z,68.80
2018-02-18T17:55:27.208Z,69.80
2018-02-18T17:57:54.723Z,69.90
2018-02-18T18:00:22.246Z,69.90
2018-02-18T18:02:50.496Z,72.90
2018-02-18T18:05:18.007Z,72.90
2018-02-18T18:07:45.500Z,72.10
2018-02-18T18:10:12.989Z,71.10
2018-02-18T18:12:41.276Z,70.50
2018-02-18T18:15:08.753Z,70.50
2018-02-18T18:17:36.242Z,72.60
2018-02-18T18:20:03.732Z,70.20
2018-02-18T18:22:31.980Z,73.20
2018-02-18T18:24:59.487Z,73.10
2018-02-18T18:27:26.978Z,71.20
2018-02-18T18:29:54.479Z,70.30
2018-02-18T18:32:22.755Z,69.80
2018-02-18T18:34:51.040Z,70.30
2018-02-18T18:37:19.299Z,71.80
2018-02-18T18:39:46.807Z,71.70
2018-02-18T18:42:14.329Z,72.60
2018-02-18T18:44:42.576Z,72.20
2018-02-18T18:47:10.120Z,72.00
2018-02-18T18:49:38.384Z,72.60
2018-02-18T18:52:05.883Z,72.60
2018-02-18T18:54:33.395Z,72.60
2018-02-18T18:57:00.912Z,72.10
2018-02-18T18:59:28.404Z,71.50
2018-02-18T19:01:56.696Z,73.10
2018-02-18T19:04:24.922Z,73.10
2018-02-18T19:06:52.439Z,73.70
2018-02-18T19:09:19.952Z,73.80
2018-02-18T19:11:47.443Z,74.20
2018-02-18T19:14:15.160Z,74.20
2018-02-18T19:16:42.677Z,74.60
2018-02-18T19:19:10.202Z,74.90
2018-02-18T19:21:38.467Z,75.30
2018-02-18T19:24:05.985Z,75.30
2018-02-18T19:26:33.484Z,75.60
2018-02-18T19:29:01.767Z,76.10
2018-02-18T19:31:30.061Z,76.30
2018-02-18T19:33:57.560Z,76.30
2018-02-18T19:36:25.051Z,76.10
2018-02-18T19:38:52.754Z,76.40
2018-02-18T19:41:20.375Z,76.30
2018-02-18T19:43:48.716Z,76.70
2018-02-18T19:46:16.227Z,76.60
2018-02-18T19:48:44.945Z,76.90
2018-02-18T19:51:12.501Z,77.00
2018-02-18T19:53:40.008Z,77.00
2018-02-18T19:56:07.587Z,77.40
2018-02-18T19:58:35.850Z,77.70
2018-02-18T20:01:03.637Z,77.70
2018-02-18T20:03:31.907Z,77.60
2018-02-18T20:06:00.167Z,77.60
2018-02-18T20:08:27.675Z,77.60
2018-02-18T20:10:55.217Z,77.80
2018-02-18T20:13:22.717Z,78.20
2018-02-18T20:15:50.219Z,78.30
2018-02-18T20:18:18.487Z,78.20
2018-02-18T20:20:47.768Z,78.10
2018-02-18T20:23:16.194Z,78.30
2018-02-18T20:25:43.725Z,78.20
2018-02-18T20:28:11.993Z,78.60
2018-02-18T20:30:40.278Z,78.80
2018-02-18T20:33:08.625Z,79.00
2018-02-18T20:35:36.208Z,79.00
2018-02-18T20:38:04.129Z,79.00
2018-02-18T20:40:31.781Z,79.10
2018-02-18T20:42:59.652Z,79.50
2018-02-18T20:45:27.156Z,79.50
2018-02-18T20:47:54.724Z,79.00
2018-02-18T20:50:23.009Z,79.60
2018-02-18T20:52:52.194Z,80.80
2018-02-18T20:55:20.701Z,79.60
2018-02-18T20:57:48.211Z,79.60
2018-02-18T21:00:15.699Z,79.60
2018-02-18T21:02:43.965Z,79.50
2018-02-18T21:05:12.263Z,79.20
2018-02-18T21:07:39.759Z,79.10
2018-02-18T21:10:07.290Z,79.20
2018-02-18T21:12:34.815Z,78.90
2018-02-18T21:15:03.105Z,79.00
2018-02-18T21:17:30.761Z,79.00
2018-02-18T21:19:58.255Z,78.70
2018-02-18T21:22:25.748Z,79.60
2018-02-18T21:24:53.286Z,79.10
2018-02-18T21:27:20.957Z,79.30
2018-02-18T21:29:48.443Z,79.90
2018-02-18T21:32:15.960Z,80.20
2018-02-18T21:34:43.472Z,80.60
2018-02-18T21:37:11.023Z,80.70
2018-02-18T21:39:38.595Z,80.60
2018-02-18T21:42:06.090Z,80.80
2018-02-18T21:44:33.676Z,80.80
2018-02-18T21:47:01.175Z,80.70
2018-02-18T21:49:28.834Z,81.10
2018-02-18T21:51:56.441Z,81.70
2018-02-18T21:54:23.959Z,82.50
2018-02-18T21:56:51.520Z,82.50
2018-02-18T21:59:19.798Z,82.80
2018-02-18T22:01:48.063Z,82.60
2018-02-18T22:04:15.577Z,82.60
2018-02-18T22:06:43.251Z,82.60
2018-02-18T22:09:10.794Z,83.50
2018-02-18T22:11:38.316Z,82.80
2018-02-18T22:14:05.873Z,83.20
2018-02-18T22:16:33.379Z,83.30
2018-02-18T22:19:00.877Z,83.10
2018-02-18T22:21:28.408Z,83.50
2018-02-18T22:23:55.983Z,83.20
2018-02-18T22:26:23.548Z,82.70
2018-02-18T22:28:51.835Z,82.90
2018-02-18T22:31:19.334Z,82.80
2018-02-18T22:33:47.046Z,83.00
2018-02-18T22:36:14.601Z,83.00
2018-02-18T22:38:42.108Z,82.70
2018-02-18T22:41:09.666Z,82.30
2018-02-18T22:43:37.253Z,82.10
2018-02-18T22:46:04.785Z,82.40
2018-02-18T22:48:32.363Z,82.80
2018-02-18T22:50:59.984Z,83.30
2018-02-18T22:53:28.262Z,84.20
2018-02-18T22:55:55.777Z,84.10
2018-02-18T22:58:23.284Z,84.50
2018-02-18T23:00:51.589Z,84.90
2018-02-18T23:03:19.144Z,84.90
2018-02-18T23:05:52.515Z,84.40
2018-02-18T23:08:21.783Z,84.60
2018-02-18T23:10:49.320Z,84.50
2018-02-18T23:13:16.887Z,84.70
2018-02-18T23:15:44.386Z,84.70
2018-02-18T23:18:11.891Z,84.70
2018-02-18T23:20:51.957Z,84.60
2018-02-18T23:23:19.484Z,84.60
2018-02-18T23:25:47.001Z,84.50
2018-02-18T23:28:14.508Z,85.10
2018-02-18T23:30:42.032Z,84.70
2018-02-18T23:33:09.533Z,84.70
2018-02-18T23:35:37.091Z,86.20
2018-02-18T23:38:04.615Z,86.10
2018-02-18T23:40:32.872Z,86.70
2018-02-18T23:43:00.859Z,86.70
2018-02-18T23:45:29.143Z,87.20
2018-02-18T23:47:56.689Z,87.10
2018-02-18T23:50:24.227Z,86.70
2018-02-18T23:52:51.719Z,87.00
2018-02-18T23:55:20.031Z,87.20
2018-02-18T23:57:47.552Z,87.20
